createdAt,value
2023-04-10T00:01:36.836Z,70.36
2023-04-10T00:04:05.477Z,70.56
2023-04-10T00:06:34.559Z,70.60
2023-04-10T00:09:02.294Z,70.88
2023-04-10T00:11:30.176Z,70.54
2023-04-10T00:13:57.427Z,70.76
2023-04-10T00:16:25.109Z,70.97
2023-04-10T00:18:52.425Z,70.75
2023-04-10T00:21:19.593Z,70.68
2023-04-10T00:23:46.991Z,70.82
2023-04-10T00:26:14.610Z,71.00
2023-04-10T00:28:41.761Z,70.82
2023-04-10T00:31:09.308Z,70.71
2023-04-10T00:33:36.957Z,70.67
2023-04-10T00:36:04.441Z,70.79
2023-04-10T00:38:32.309Z,70.55
2023-04-10T00:40:59.515Z,70.78
2023-04-10T00:43:26.798Z,71.06
2023-04-10T00:45:54.449Z,71.30
2023-04-10T00:48:21.596Z,71.31
2023-04-10T00:50:48.760Z,71.38
2023-04-10T00:53:17.127Z,71.41
2023-04-10T00:55:45.327Z,71.34
2023-04-10T00:58:14.823Z,71.39
2023-04-10T01:03:22.398Z,71.43
2023-04-10T01:05:57.051Z,71.13
2023-04-10T01:08:37.953Z,71.37
2023-04-10T01:11:14.205Z,71.65
2023-04-10T01:13:41.157Z,71.42
2023-04-10T01:16:25.920Z,71.61
2023-04-10T01:19:45.370Z,71.96
2023-04-10T01:22:17.126Z,71.63
2023-04-10T01:25:10.803Z,71.88
2023-04-10T01:28:00.375Z,72.19
2023-04-10T01:30:29.341Z,72.18
2023-04-10T01:33:00.073Z,72.11
2023-04-10T01:35:30.064Z,72.17
2023-04-10T01:38:00.213Z,71.43
2023-04-10T01:40:29.998Z,71.09
2023-04-10T01:42:59.694Z,70.93
2023-04-10T01:45:32.159Z,70.87
2023-04-10T01:47:59.954Z,71.03
2023-04-10T01:50:29.645Z,71.17
2023-04-10T01:52:57.967Z,71.16
2023-04-10T01:55:26.223Z,70.66
2023-04-10T01:57:55.234Z,71.17
2023-04-10T02:00:23.297Z,71.45
2023-04-10T02:02:51.421Z,71.56
2023-04-10T02:05:19.424Z,71.55
2023-04-10T02:08:06.282Z,71.57
2023-04-10T02:10:43.768Z,71.72
2023-04-10T02:13:13.924Z,71.75
2023-04-10T02:15:44.987Z,71.81
2023-04-10T02:18:16.265Z,71.84
2023-04-10T02:20:44.543Z,72.09
2023-04-10T02:23:12.469Z,72.36
2023-04-10T02:25:39.793Z,72.27
2023-04-10T02:28:08.419Z,72.42
2023-04-10T02:30:36.681Z,72.57
2023-04-10T02:33:03.885Z,72.50
2023-04-10T02:35:31.394Z,72.47
2023-04-10T02:37:58.670Z,72.40
2023-04-10T02:40:25.923Z,72.18
2023-04-10T02:42:53.562Z,72.14
2023-04-10T02:45:20.909Z,71.96
2023-04-10T02:47:48.146Z,71.77
2023-04-10T02:50:15.424Z,71.48
2023-04-10T02:52:42.850Z,71.60
2023-04-10T02:55:10.899Z,71.80
2023-04-10T02:57:38.368Z,71.97
2023-04-10T03:00:06.551Z,72.01
2023-04-10T03:02:34.296Z,72.13
2023-04-10T03:05:02.983Z,72.18
2023-04-10T03:07:30.518Z,72.25
2023-04-10T03:09:57.728Z,71.92
2023-04-10T03:12:25.408Z,72.18
2023-04-10T03:14:53.353Z,72.28
2023-04-10T03:17:20.705Z,71.91
2023-04-10T03:19:47.915Z,72.01
2023-04-10T03:22:15.374Z,72.08
2023-04-10T03:24:42.484Z,71.16
2023-04-10T03:27:09.754Z,71.86
2023-04-10T03:29:37.647Z,72.18
2023-04-10T03:32:04.966Z,72.40
2023-04-10T03:34:32.200Z,72.58
2023-04-10T03:36:59.754Z,72.49
2023-04-10T03:39:27.089Z,72.65
2023-04-10T03:41:54.290Z,72.54
2023-04-10T03:44:23.407Z,72.37
2023-04-10T03:46:51.012Z,72.27
2023-04-10T03:49:18.335Z,72.49
2023-04-10T03:51:45.972Z,72.46
2023-04-10T03:54:13.231Z,72.35
2023-04-10T03:56:40.513Z,72.47
2023-04-10T03:59:07.578Z,72.48
2023-04-10T04:01:35.256Z,72.57
2023-04-10T04:04:02.733Z,72.53
2023-04-10T04:06:30.637Z,72.52
2023-04-10T04:08:58.284Z,72.59
2023-04-10T04:11:25.455Z,72.39
2023-04-10T04:13:53.457Z,72.43
2023-04-10T04:16:21.493Z,72.43
2023-04-10T04:18:48.747Z,72.22
2023-04-10T04:21:17.064Z,72.36
2023-04-10T04:23:44.909Z,72.66
2023-04-10T04:26:12.191Z,72.46
2023-04-10T04:28:39.858Z,72.52
2023-04-10T04:31:09.315Z,72.84
2023-04-10T04:33:36.562Z,72.92
2023-04-10T04:36:04.541Z,72.53
2023-04-10T04:38:31.985Z,72.55
2023-04-10T04:40:59.256Z,72.33
2023-04-10T04:43:27.388Z,72.40
2023-04-10T04:45:54.981Z,72.62
2023-04-10T04:48:22.287Z,72.69
2023-04-10T04:50:49.824Z,72.96
2023-04-10T04:53:17.420Z,72.83
2023-04-10T04:55:44.680Z,72.11
2023-04-10T04:58:12.257Z,72.81
2023-04-10T05:00:40.150Z,72.64
2023-04-10T05:03:07.435Z,73.21
2023-04-10T05:05:35.239Z,73.12
2023-04-10T05:08:02.908Z,73.34
2023-04-10T05:10:30.123Z,73.49
2023-04-10T05:12:57.459Z,73.79
2023-04-10T05:15:24.800Z,73.85
2023-04-10T05:17:53.554Z,73.57
2023-04-10T05:20:22.633Z,73.29
2023-04-10T05:22:51.768Z,73.56
2023-04-10T05:25:19.232Z,73.92
2023-04-10T05:27:46.831Z,73.90
2023-04-10T05:30:14.226Z,73.90
2023-04-10T05:32:41.549Z,73.84
2023-04-10T05:35:09.507Z,73.96
2023-04-10T05:37:37.101Z,74.20
2023-04-10T05:40:04.873Z,74.49
2023-04-10T05:42:32.520Z,74.67
2023-04-10T05:45:00.217Z,74.62
2023-04-10T05:47:27.439Z,74.78
2023-04-10T05:49:55.060Z,74.68
2023-04-10T05:52:22.497Z,74.39
2023-04-10T05:54:49.821Z,74.23
2023-04-10T05:57:17.398Z,74.78
2023-04-10T05:59:45.045Z,74.97
2023-04-10T06:02:12.576Z,74.64
2023-04-10T06:04:39.944Z,74.63
2023-04-10T06:07:07.309Z,74.06
2023-04-10T06:09:34.451Z,74.50
2023-04-10T06:12:01.813Z,74.71
2023-04-10T06:14:29.091Z,74.51
2023-04-10T06:16:56.991Z,74.19
2023-04-10T06:19:24.667Z,74.10
2023-04-10T06:21:53.921Z,73.96
2023-04-10T06:24:22.228Z,73.91
2023-04-10T06:26:50.000Z,73.98
2023-04-10T06:29:17.352Z,73.77
2023-04-10T06:31:45.094Z,73.86
2023-04-10T06:34:12.659Z,73.61
2023-04-10T06:36:40.086Z,73.99
2023-04-10T06:39:07.525Z,74.08
2023-04-10T06:41:34.978Z,74.24
2023-04-10T06:44:03.393Z,74.25
2023-04-10T06:46:31.069Z,74.17
2023-04-10T06:48:58.959Z,74.00
2023-04-10T06:51:26.619Z,73.96
2023-04-10T06:53:54.320Z,73.62
2023-04-10T06:56:22.173Z,73.66
2023-04-10T06:58:49.534Z,73.76
2023-04-10T07:01:18.232Z,73.72
2023-04-10T07:03:46.116Z,73.80
2023-04-10T07:06:13.823Z,73.75
2023-04-10T07:08:41.810Z,73.79
2023-04-10T07:11:09.428Z,73.93
2023-04-10T07:13:39.296Z,73.76
2023-04-10T07:16:08.847Z,73.69
2023-04-10T07:18:39.224Z,73.75
2023-04-10T07:21:13.464Z,73.89
2023-04-10T07:23:41.496Z,73.83
2023-04-10T07:26:08.769Z,73.88
2023-04-10T07:28:37.004Z,73.71
2023-04-10T07:31:04.949Z,73.71
2023-04-10T07:33:32.405Z,73.92
2023-04-10T07:36:00.190Z,73.98
2023-04-10T07:38:28.207Z,73.98
2023-04-10T07:41:02.012Z,73.92
2023-04-10T07:43:29.814Z,73.81
2023-04-10T07:45:57.589Z,73.79
2023-04-10T07:48:25.526Z,74.05
2023-04-10T07:50:54.080Z,74.25
2023-04-10T07:53:21.334Z,74.41
2023-04-10T07:55:50.707Z,74.06
2023-04-10T07:58:18.401Z,73.78
2023-04-10T08:00:46.009Z,73.80
2023-04-10T08:03:15.439Z,73.77
2023-04-10T08:05:43.195Z,73.71
2023-04-10T08:08:10.656Z,73.51
2023-04-10T08:10:39.666Z,73.52
2023-04-10T08:13:07.453Z,73.52
2023-04-10T08:15:35.009Z,73.54
2023-04-10T08:18:02.408Z,73.54
2023-04-10T08:20:30.273Z,73.48
2023-04-10T08:25:45.373Z,73.55
2023-04-10T08:28:12.593Z,73.72
2023-04-10T08:30:40.015Z,73.57
2023-04-10T08:33:07.562Z,73.53
2023-04-10T08:35:35.024Z,73.46
2023-04-10T08:38:12.626Z,73.36
2023-04-10T08:40:42.168Z,73.37
2023-04-10T08:43:09.375Z,73.13
2023-04-10T08:45:36.810Z,73.06
2023-04-10T08:48:07.110Z,73.00
2023-04-10T08:50:37.462Z,72.88
2023-04-10T08:53:11.602Z,72.90
2023-04-10T08:55:40.906Z,72.85
2023-04-10T08:58:08.925Z,72.81
2023-04-10T09:00:39.219Z,72.70
2023-04-10T09:03:12.175Z,72.67
2023-04-10T09:05:39.680Z,72.59
2023-04-10T09:08:08.813Z,72.48
2023-04-10T09:10:36.139Z,72.22
2023-04-10T09:13:03.473Z,72.05
2023-04-10T09:15:30.942Z,71.80
2023-04-10T09:18:00.934Z,71.61
2023-04-10T09:20:31.627Z,71.17
2023-04-10T09:22:59.273Z,71.17
2023-04-10T09:25:36.146Z,71.23
2023-04-10T09:28:08.740Z,71.10
2023-04-10T09:30:37.337Z,70.84
2023-04-10T09:33:27.406Z,70.48
2023-04-10T09:35:58.369Z,70.29
2023-04-10T09:38:26.195Z,70.11
2023-04-10T09:40:54.421Z,69.87
2023-04-10T09:43:25.186Z,69.80
2023-04-10T09:45:53.614Z,69.77
2023-04-10T09:48:22.415Z,69.41
2023-04-10T09:50:50.050Z,69.44
2023-04-10T09:53:20.390Z,69.47
2023-04-10T09:55:49.689Z,69.54
2023-04-10T09:58:18.261Z,69.39
2023-04-10T10:00:47.524Z,69.17
2023-04-10T10:03:16.977Z,69.36
2023-04-10T10:05:51.408Z,69.34
2023-04-10T10:08:18.820Z,69.11
2023-04-10T10:10:55.421Z,68.56
2023-04-10T10:13:48.767Z,67.72
2023-04-10T10:16:28.092Z,67.69
2023-04-10T10:19:13.082Z,67.64
2023-04-10T10:21:43.393Z,67.60
2023-04-10T10:24:13.044Z,67.23
2023-04-10T10:26:40.961Z,66.78
2023-04-10T10:29:14.200Z,66.44
2023-04-10T10:31:42.449Z,66.19
2023-04-10T10:34:10.179Z,66.34
2023-04-10T10:36:38.686Z,66.20
2023-04-10T10:39:23.484Z,66.22
2023-04-10T10:42:02.723Z,65.93
2023-04-10T10:44:43.528Z,66.26
2023-04-10T10:47:25.435Z,65.43
2023-04-10T10:50:01.241Z,65.20
2023-04-10T10:52:50.312Z,65.60
2023-04-10T10:55:33.029Z,65.10
2023-04-10T10:58:05.903Z,64.97
2023-04-10T11:00:59.830Z,64.93
2023-04-10T11:03:31.091Z,63.92
2023-04-10T11:06:04.278Z,63.64
2023-04-10T11:08:35.006Z,63.69
2023-04-10T11:11:08.983Z,64.19
2023-04-10T11:13:39.192Z,64.06
2023-04-10T11:16:10.489Z,63.74
2023-04-10T11:18:49.618Z,64.19
2023-04-10T11:21:22.633Z,64.28
2023-04-10T11:23:56.710Z,63.33
2023-04-10T11:26:37.189Z,63.61
2023-04-10T11:29:20.510Z,62.60
2023-04-10T11:31:59.603Z,61.59
2023-04-10T11:34:28.320Z,61.15
2023-04-10T11:36:56.154Z,60.49
2023-04-10T11:39:23.465Z,59.62
2023-04-10T11:41:53.210Z,59.84
2023-04-10T11:44:32.360Z,60.05
2023-04-10T11:47:00.080Z,60.72
2023-04-10T11:49:37.544Z,61.13
2023-04-10T11:52:05.397Z,61.60
2023-04-10T11:54:33.030Z,61.72
2023-04-10T11:57:07.976Z,62.82
2023-04-10T11:59:35.881Z,62.18
2023-04-10T12:02:16.881Z,61.56
2023-04-10T12:04:45.325Z,61.14
2023-04-10T12:07:13.187Z,60.65
2023-04-10T12:09:41.157Z,59.91
2023-04-10T12:12:09.039Z,59.66
2023-04-10T12:14:42.738Z,60.04
2023-04-10T12:17:11.746Z,58.12
2023-04-10T12:19:40.998Z,59.19
2023-04-10T12:22:09.456Z,60.04
2023-04-10T12:24:51.224Z,60.00
2023-04-10T12:27:29.836Z,59.63
2023-04-10T12:29:59.302Z,57.98
2023-04-10T12:32:29.649Z,58.77
2023-04-10T12:34:58.253Z,59.60
2023-04-10T12:37:46.717Z,59.72
2023-04-10T12:40:15.328Z,59.67
2023-04-10T12:42:43.526Z,59.17
2023-04-10T12:45:14.293Z,57.32
2023-04-10T12:47:47.641Z,57.98
2023-04-10T12:50:16.900Z,58.66
2023-04-10T12:52:46.556Z,58.64
2023-04-10T12:55:18.723Z,56.81
2023-04-10T12:57:47.974Z,57.41
2023-04-10T13:00:17.785Z,57.22
2023-04-10T13:02:47.013Z,57.01
2023-04-10T13:05:15.411Z,56.67
2023-04-10T13:07:43.331Z,56.60
2023-04-10T13:10:10.861Z,57.04
2023-04-10T13:12:39.375Z,57.29
2023-04-10T13:15:08.283Z,57.28
2023-04-10T13:17:37.671Z,57.26
2023-04-10T13:20:05.764Z,56.85
2023-04-10T13:22:32.889Z,56.96
2023-04-10T13:25:00.235Z,57.06
2023-04-10T13:27:27.509Z,57.57
2023-04-10T13:29:56.043Z,56.80
2023-04-10T13:32:23.897Z,56.38
2023-04-10T13:34:51.287Z,56.40
2023-04-10T13:37:18.578Z,56.33
2023-04-10T13:39:46.023Z,56.69
2023-04-10T13:42:14.285Z,57.51
2023-04-10T13:44:44.343Z,56.87
2023-04-10T13:47:12.158Z,56.82
2023-04-10T13:49:39.767Z,56.85
2023-04-10T13:52:07.148Z,55.88
2023-04-10T13:54:34.926Z,55.34
2023-04-10T13:57:03.357Z,55.03
2023-04-10T13:59:31.154Z,55.30
2023-04-10T14:01:58.901Z,55.26
2023-04-10T14:04:26.170Z,55.88
2023-04-10T14:06:58.155Z,55.87
2023-04-10T14:09:25.568Z,55.57
2023-04-10T14:11:52.815Z,55.08
2023-04-10T14:14:20.009Z,54.62
2023-04-10T14:16:47.677Z,53.20
2023-04-10T14:19:14.899Z,52.73
2023-04-10T14:21:44.425Z,51.88
2023-04-10T14:24:12.364Z,51.57
2023-04-10T14:26:40.317Z,51.96
2023-04-10T14:29:09.154Z,51.32
2023-04-10T14:31:44.196Z,51.89
2023-04-10T14:34:22.871Z,52.81
2023-04-10T14:36:50.565Z,53.18
2023-04-10T14:39:17.857Z,53.25
2023-04-10T14:41:45.073Z,53.67
2023-04-10T14:44:12.710Z,53.89
2023-04-10T14:46:39.920Z,53.79
2023-04-10T14:49:07.153Z,54.17
2023-04-10T14:51:34.883Z,54.58
2023-04-10T14:54:04.775Z,55.24
2023-04-10T14:56:32.111Z,55.80
2023-04-10T14:59:00.155Z,56.79
2023-04-10T15:01:27.592Z,57.30
2023-04-10T15:03:55.164Z,57.78
2023-04-10T15:06:23.630Z,58.25
2023-04-10T15:08:51.348Z,58.78
2023-04-10T15:11:18.594Z,59.15
2023-04-10T15:13:47.939Z,59.44
2023-04-10T15:16:15.236Z,59.49
2023-04-10T15:18:42.452Z,59.78
2023-04-10T15:21:10.214Z,59.94
2023-04-10T15:23:37.497Z,60.12
2023-04-10T15:26:04.901Z,60.29
2023-04-10T15:28:32.895Z,60.39
2023-04-10T15:31:00.232Z,60.98
2023-04-10T15:33:27.518Z,61.41
2023-04-10T15:35:55.720Z,61.79
2023-04-10T15:38:26.615Z,61.86
2023-04-10T15:40:53.964Z,62.12
2023-04-10T15:43:21.892Z,63.06
2023-04-10T15:45:49.213Z,63.64
2023-04-10T15:48:16.764Z,63.48
2023-04-10T15:50:44.145Z,63.12
2023-04-10T15:53:11.401Z,62.26
2023-04-10T15:55:41.619Z,61.94
2023-04-10T15:58:08.887Z,60.33
2023-04-10T16:00:36.391Z,60.30
2023-04-10T16:03:03.969Z,60.26
2023-04-10T16:05:31.813Z,60.58
2023-04-10T16:07:59.105Z,61.14
2023-04-10T16:10:26.485Z,61.50
2023-04-10T16:12:54.379Z,62.08
2023-04-10T16:15:21.675Z,63.28
2023-04-10T16:17:49.103Z,64.13
2023-04-10T16:20:16.363Z,64.23
2023-04-10T16:22:43.664Z,64.00
2023-04-10T16:25:11.163Z,64.31
2023-04-10T16:27:38.910Z,63.48
2023-04-10T16:30:07.002Z,60.73
2023-04-10T16:32:34.874Z,57.00
2023-04-10T16:35:02.791Z,55.90
2023-04-10T16:37:30.123Z,56.82
2023-04-10T16:39:57.482Z,58.04
2023-04-10T16:42:24.851Z,59.07
2023-04-10T16:44:53.031Z,59.66
2023-04-10T16:47:20.415Z,60.15
2023-04-10T16:49:48.496Z,60.79
2023-04-10T16:52:15.841Z,61.47
2023-04-10T16:54:43.113Z,63.75
2023-04-10T16:57:11.119Z,65.53
2023-04-10T16:59:38.602Z,63.40
2023-04-10T17:02:05.961Z,61.81
2023-04-10T17:04:33.218Z,61.19
2023-04-10T17:07:00.977Z,60.85
2023-04-10T17:09:28.326Z,60.55
2023-04-10T17:11:56.525Z,60.52
2023-04-10T17:14:23.790Z,60.23
2023-04-10T17:16:51.146Z,60.80
2023-04-10T17:19:18.752Z,61.12
2023-04-10T17:21:46.558Z,58.84
2023-04-10T17:24:13.791Z,57.93
2023-04-10T17:26:41.986Z,58.93
2023-04-10T17:29:09.276Z,60.14
2023-04-10T17:31:36.811Z,61.03
2023-04-10T17:34:04.662Z,61.96
2023-04-10T17:36:33.075Z,63.62
2023-04-10T17:39:01.070Z,65.35
2023-04-10T17:41:28.574Z,65.41
2023-04-10T17:43:56.455Z,63.04
2023-04-10T17:46:24.008Z,61.15
2023-04-10T17:48:51.459Z,60.79
2023-04-10T17:51:19.269Z,60.63
2023-04-10T17:53:47.304Z,60.62
2023-04-10T17:56:22.494Z,60.59
2023-04-10T17:58:50.136Z,61.58
2023-04-10T18:01:27.081Z,60.72
2023-04-10T18:03:54.801Z,57.67
2023-04-10T18:06:22.420Z,57.22
2023-04-10T18:08:50.562Z,58.41
2023-04-10T18:11:17.907Z,59.85
2023-04-10T18:13:46.523Z,60.42
2023-04-10T18:16:13.841Z,61.70
2023-04-10T18:18:42.720Z,64.30
2023-04-10T18:21:14.004Z,65.73
2023-04-10T18:23:41.834Z,64.36
2023-04-10T18:26:09.263Z,63.23
2023-04-10T18:28:38.285Z,63.20
2023-04-10T18:31:06.077Z,62.49
2023-04-10T18:33:35.136Z,61.63
2023-04-10T18:36:03.867Z,59.80
2023-04-10T18:38:31.577Z,58.44
2023-04-10T18:40:58.820Z,59.66
2023-04-10T18:43:30.271Z,61.66
2023-04-10T18:45:59.151Z,64.01
2023-04-10T18:48:26.586Z,66.52
2023-04-10T18:50:54.413Z,66.10
2023-04-10T18:53:25.058Z,64.75
2023-04-10T18:55:54.733Z,64.10
2023-04-10T18:58:23.289Z,64.13
2023-04-10T19:00:51.430Z,64.01
2023-04-10T19:03:19.642Z,63.32
2023-04-10T19:05:48.873Z,63.73
2023-04-10T19:08:18.076Z,63.90
2023-04-10T19:10:46.234Z,64.24
2023-04-10T19:13:13.977Z,64.74
2023-04-10T19:15:43.565Z,65.10
2023-04-10T19:18:13.117Z,65.49
2023-04-10T19:20:52.274Z,65.54
2023-04-10T19:23:21.627Z,66.80
2023-04-10T19:25:54.990Z,65.77
2023-04-10T19:28:24.543Z,65.04
2023-04-10T19:30:53.067Z,64.85
2023-04-10T19:33:21.737Z,65.97
2023-04-10T19:35:51.559Z,63.43
2023-04-10T19:38:19.368Z,62.06
2023-04-10T19:40:48.094Z,62.14
2023-04-10T19:43:15.324Z,62.20
2023-04-10T19:45:43.172Z,61.60
2023-04-10T19:48:11.348Z,62.03
2023-04-10T19:50:38.881Z,61.82
2023-04-10T19:53:06.287Z,61.84
2023-04-10T19:55:35.416Z,62.28
2023-04-10T19:58:02.746Z,62.51
2023-04-10T20:00:30.668Z,63.94
2023-04-10T20:02:59.142Z,62.62
2023-04-10T20:05:27.127Z,61.93
2023-04-10T20:07:54.465Z,61.33
2023-04-10T20:10:22.324Z,60.87
2023-04-10T20:12:49.530Z,61.52
2023-04-10T20:15:16.910Z,61.97
2023-04-10T20:17:44.446Z,63.56
2023-04-10T20:20:13.628Z,63.93
2023-04-10T20:22:40.927Z,62.85
2023-04-10T20:25:09.243Z,62.34
2023-04-10T20:27:36.321Z,62.30
2023-04-10T20:30:03.861Z,61.59
2023-04-10T20:32:31.571Z,60.94
2023-04-10T20:34:59.264Z,60.63
2023-04-10T20:37:26.497Z,60.30
2023-04-10T20:39:53.836Z,60.05
2023-04-10T20:42:21.420Z,60.20
2023-04-10T20:44:48.779Z,60.84
2023-04-10T20:47:16.346Z,61.21
2023-04-10T20:49:43.890Z,61.53
2023-04-10T20:52:11.381Z,61.79
2023-04-10T20:54:39.379Z,62.24
2023-04-10T20:57:06.704Z,62.61
2023-04-10T20:59:36.459Z,63.15
2023-04-10T21:02:04.556Z,63.52
2023-04-10T21:04:33.400Z,64.00
2023-04-10T21:07:00.792Z,64.54
2023-04-10T21:09:28.299Z,65.58
2023-04-10T21:11:55.869Z,66.43
2023-04-10T21:14:23.072Z,64.80
2023-04-10T21:16:50.904Z,62.94
2023-04-10T21:19:18.613Z,62.39
2023-04-10T21:21:45.897Z,61.31
2023-04-10T21:24:13.133Z,61.01
2023-04-10T21:26:40.673Z,61.09
2023-04-10T21:29:07.906Z,61.26
2023-04-10T21:31:36.067Z,61.88
2023-04-10T21:34:03.992Z,62.60
2023-04-10T21:36:31.666Z,61.17
2023-04-10T21:38:58.875Z,61.02
2023-04-10T21:41:27.591Z,60.84
2023-04-10T21:43:56.956Z,61.22
2023-04-10T21:46:24.706Z,61.51
2023-04-10T21:48:52.158Z,61.60
2023-04-10T21:51:19.442Z,62.20
2023-04-10T21:53:47.034Z,62.85
2023-04-10T21:56:14.465Z,63.16
2023-04-10T21:58:41.808Z,63.04
2023-04-10T22:01:09.629Z,63.06
2023-04-10T22:03:37.322Z,62.94
2023-04-10T22:06:04.731Z,62.95
2023-04-10T22:08:32.142Z,63.08
2023-04-10T22:10:59.328Z,63.46
2023-04-10T22:13:30.712Z,64.58
2023-04-10T22:16:02.775Z,64.12
2023-04-10T22:18:30.604Z,63.14
2023-04-10T22:20:58.086Z,62.59
2023-04-10T22:23:25.645Z,62.61
2023-04-10T22:25:52.818Z,63.06
2023-04-10T22:28:20.047Z,64.64
2023-04-10T22:30:47.587Z,64.00
2023-04-10T22:33:15.983Z,63.80
2023-04-10T22:35:43.240Z,63.66
2023-04-10T22:38:10.828Z,63.61
2023-04-10T22:40:38.176Z,63.59
2023-04-10T22:43:05.406Z,63.59
2023-04-10T22:45:32.960Z,63.83
2023-04-10T22:48:00.372Z,64.13
2023-04-10T22:50:27.633Z,64.27
2023-04-10T22:52:55.078Z,64.62
2023-04-10T22:55:22.619Z,64.44
2023-04-10T22:57:50.000Z,64.27
2023-04-10T23:00:17.676Z,64.55
2023-04-10T23:02:48.364Z,64.44
2023-04-10T23:05:15.857Z,64.31
2023-04-10T23:07:43.636Z,64.65
2023-04-10T23:10:11.037Z,64.57
2023-04-10T23:12:38.230Z,64.36
2023-04-10T23:15:07.664Z,64.42
2023-04-10T23:17:35.013Z,64.74
2023-04-10T23:20:02.415Z,65.84
2023-04-10T23:22:30.703Z,65.84
2023-04-10T23:24:58.437Z,65.69
2023-04-10T23:27:25.717Z,65.86
2023-04-10T23:29:53.428Z,65.74
2023-04-10T23:32:20.644Z,65.25
2023-04-10T23:34:47.877Z,65.43
2023-04-10T23:37:15.133Z,65.13
2023-04-10T23:39:42.350Z,65.34
2023-04-10T23:42:09.614Z,66.39
2023-04-10T23:44:37.330Z,68.28
2023-04-10T23:47:04.662Z,66.02
2023-04-10T23:49:32.041Z,63.71
2023-04-10T23:51:59.358Z,62.45
2023-04-10T23:54:26.679Z,61.40
2023-04-10T23:56:53.796Z,60.47
2023-04-10T23:59:21.375Z,60.37
